createdAt,value
2018-06-30T00:01:49.349Z,943.4
2018-06-30T00:03:51.720Z,943.4
2018-06-30T00:05:54.088Z,943.4
2018-06-30T00:07:56.462Z,943.5
2018-06-30T00:09:58.831Z,943.5
2018-06-30T00:12:01.194Z,943.5
2018-06-30T00:14:03.560Z,943.5
2018-06-30T00:16:05.930Z,943.5
2018-06-30T00:18:08.295Z,943.5
2018-06-30T00:20:10.662Z,943.6
2018-06-30T00:22:13.048Z,943.5
2018-06-30T00:24:15.416Z,943.5
2018-06-30T00:26:17.788Z,943.5
2018-06-30T00:28:20.153Z,943.5
2018-06-30T00:30:22.520Z,943.4
2018-06-30T00:32:24.904Z,943.4
2018-06-30T00:34:27.269Z,943.4
2018-06-30T00:36:29.638Z,943.3
2018-06-30T00:38:32.006Z,943.3
2018-06-30T00:40:34.378Z,943.3
2018-06-30T00:42:39.872Z,943.3
2018-06-30T00:44:42.236Z,943.3
2018-06-30T00:46:44.612Z,943.4
2018-06-30T00:48:46.990Z,943.4
2018-06-30T00:50:49.354Z,943.3
2018-06-30T00:52:51.721Z,943.3
2018-06-30T00:54:54.106Z,943.3
2018-06-30T00:56:59.417Z,943.2
2018-06-30T00:59:01.787Z,943.2
2018-06-30T01:01:04.154Z,943.2
2018-06-30T01:03:06.537Z,943.1
2018-06-30T01:05:08.889Z,943.2
2018-06-30T01:07:11.265Z,943.2
2018-06-30T01:09:13.631Z,943.1
2018-06-30T01:11:15.999Z,943.2
2018-06-30T01:13:18.367Z,943.2
2018-06-30T01:15:20.734Z,943.1
2018-06-30T01:17:23.102Z,943.1
2018-06-30T01:19:25.469Z,943.1
2018-06-30T01:21:27.837Z,943.1
2018-06-30T01:23:30.205Z,943.1
2018-06-30T01:25:32.573Z,943.2
2018-06-30T01:27:34.938Z,943.1
2018-06-30T01:29:38.220Z,943.1
2018-06-30T01:31:40.588Z,943.1
2018-06-30T01:33:42.978Z,943.1
2018-06-30T01:35:45.344Z,943.1
2018-06-30T01:37:47.714Z,943
2018-06-30T01:39:50.082Z,943
2018-06-30T01:41:52.450Z,943
2018-06-30T01:43:54.817Z,943
2018-06-30T01:45:57.185Z,943
2018-06-30T01:47:59.551Z,942.9
2018-06-30T01:50:01.925Z,943
2018-06-30T01:52:04.288Z,943
2018-06-30T01:54:06.654Z,943
2018-06-30T01:56:09.047Z,942.9
2018-06-30T01:58:11.443Z,942.9
2018-06-30T02:00:13.810Z,942.9
2018-06-30T02:02:16.178Z,943
2018-06-30T02:04:18.546Z,942.9
2018-06-30T02:06:20.917Z,943
2018-06-30T02:08:23.281Z,942.9
2018-06-30T02:10:25.649Z,943
2018-06-30T02:12:28.017Z,942.9
2018-06-30T02:14:30.384Z,942.9
2018-06-30T02:16:32.752Z,942.9
2018-06-30T02:18:35.120Z,942.9
2018-06-30T02:20:37.492Z,942.9
2018-06-30T02:22:39.856Z,942.8
2018-06-30T02:24:42.230Z,942.9
2018-06-30T02:26:47.298Z,942.8
2018-06-30T02:28:49.665Z,942.9
2018-06-30T02:30:52.033Z,942.9
2018-06-30T02:32:55.378Z,942.9
2018-06-30T02:34:57.682Z,942.9
2018-06-30T02:37:00.064Z,942.9
2018-06-30T02:39:02.451Z,942.9
2018-06-30T02:41:04.833Z,942.9
2018-06-30T02:43:07.199Z,942.9
2018-06-30T02:45:09.569Z,942.9
2018-06-30T02:47:11.936Z,942.9
2018-06-30T02:49:14.305Z,943
2018-06-30T02:51:16.672Z,942.9
2018-06-30T02:53:19.041Z,942.9
2018-06-30T02:55:22.429Z,942.9
2018-06-30T02:57:24.785Z,942.9
2018-06-30T02:59:27.153Z,942.9
2018-06-30T03:01:29.520Z,943
2018-06-30T03:03:31.889Z,942.9
2018-06-30T03:05:34.277Z,943
2018-06-30T03:07:36.647Z,943.1
2018-06-30T03:09:39.013Z,943.1
2018-06-30T03:11:41.402Z,943
2018-06-30T03:13:43.767Z,943
2018-06-30T03:15:46.132Z,943
2018-06-30T03:17:48.517Z,943
2018-06-30T03:19:51.904Z,943
2018-06-30T03:21:54.272Z,943
2018-06-30T03:23:56.648Z,943
2018-06-30T03:25:59.016Z,943
2018-06-30T03:28:01.384Z,943
2018-06-30T03:30:03.754Z,943
2018-06-30T03:32:06.121Z,943
2018-06-30T03:34:08.491Z,943
2018-06-30T03:36:10.905Z,943.1
2018-06-30T03:38:13.271Z,943
2018-06-30T03:40:15.639Z,943.1
2018-06-30T03:42:18.006Z,943
2018-06-30T03:44:20.373Z,943.1
2018-06-30T03:46:22.895Z,943.1
2018-06-30T03:48:25.261Z,943.2
2018-06-30T03:50:27.627Z,943.2
2018-06-30T03:52:30.010Z,943.2
2018-06-30T03:54:32.374Z,943.2
2018-06-30T03:56:34.742Z,943.2
2018-06-30T03:58:37.111Z,943.2
2018-06-30T04:00:39.479Z,943.2
2018-06-30T04:02:41.846Z,943.2
2018-06-30T04:04:44.218Z,943.1
2018-06-30T04:06:46.583Z,943.1
2018-06-30T04:08:48.982Z,943.1
2018-06-30T04:10:51.339Z,943.2
2018-06-30T04:12:53.709Z,943.1
2018-06-30T04:14:56.073Z,943.1
2018-06-30T04:16:58.442Z,943.1
2018-06-30T04:19:00.808Z,943
2018-06-30T04:21:03.176Z,943
2018-06-30T04:23:05.545Z,943.1
2018-06-30T04:25:07.910Z,943.1
2018-06-30T04:27:10.283Z,943.2
2018-06-30T04:29:12.645Z,943.2
2018-06-30T04:31:15.014Z,943.2
2018-06-30T04:33:17.382Z,943.2
2018-06-30T04:35:19.749Z,943.1
2018-06-30T04:37:22.127Z,943.1
2018-06-30T04:39:24.495Z,943.2
2018-06-30T04:41:26.862Z,943.2
2018-06-30T04:43:29.249Z,943.2
2018-06-30T04:45:31.617Z,943.2
2018-06-30T04:47:33.985Z,943.1
2018-06-30T04:49:36.352Z,943.1
2018-06-30T04:51:38.720Z,943.2
2018-06-30T04:53:41.088Z,943.1
2018-06-30T04:55:43.455Z,943.2
2018-06-30T04:57:45.822Z,943.2
2018-06-30T04:59:48.405Z,943.3
2018-06-30T05:01:50.771Z,943.2
2018-06-30T05:03:53.139Z,943.2
2018-06-30T05:05:55.517Z,943.2
2018-06-30T05:07:57.884Z,943.2
2018-06-30T05:10:00.262Z,943.3
2018-06-30T05:12:02.620Z,943.2
2018-06-30T05:14:04.988Z,943.2
2018-06-30T05:16:07.358Z,943.3
2018-06-30T05:18:09.725Z,943.3
2018-06-30T05:20:12.090Z,943.3
2018-06-30T05:22:14.476Z,943.3
2018-06-30T05:24:16.840Z,943.3
2018-06-30T05:26:19.209Z,943.2
2018-06-30T05:28:21.591Z,943.3
2018-06-30T05:30:23.960Z,943.4
2018-06-30T05:32:26.346Z,943.4
2018-06-30T05:34:28.704Z,943.4
2018-06-30T05:36:31.073Z,943.4
2018-06-30T05:38:33.441Z,943.4
2018-06-30T05:40:35.810Z,943.4
2018-06-30T05:42:39.189Z,943.3
2018-06-30T05:44:41.557Z,943.4
2018-06-30T05:46:43.925Z,943.3
2018-06-30T05:48:46.294Z,943.3
2018-06-30T05:50:48.664Z,943.3
2018-06-30T05:52:51.051Z,943.3
2018-06-30T05:54:53.401Z,943.3
2018-06-30T05:56:55.784Z,943.4
2018-06-30T05:58:58.157Z,943.4
2018-06-30T06:01:00.522Z,943.4
2018-06-30T06:03:02.896Z,943.4
2018-06-30T06:05:05.271Z,943.5
2018-06-30T06:07:07.635Z,943.4
2018-06-30T06:09:10.015Z,943.4
2018-06-30T06:11:12.380Z,943.4
2018-06-30T06:13:14.785Z,943.4
2018-06-30T06:15:17.476Z,943.5
2018-06-30T06:17:23.840Z,943.5
2018-06-30T06:19:26.211Z,943.4
2018-06-30T06:21:28.796Z,943.5
2018-06-30T06:23:31.157Z,943.5
2018-06-30T06:25:33.527Z,943.5
2018-06-30T06:27:36.082Z,943.5
2018-06-30T06:29:38.586Z,943.5
2018-06-30T06:31:40.949Z,943.4
2018-06-30T06:33:43.318Z,943.5
2018-06-30T06:35:45.694Z,943.4
2018-06-30T06:37:48.065Z,943.5
2018-06-30T06:39:50.431Z,943.4
2018-06-30T06:41:52.818Z,943.4
2018-06-30T06:43:55.187Z,943.5
2018-06-30T06:45:57.560Z,943.4
2018-06-30T06:47:59.933Z,943.5
2018-06-30T06:50:02.305Z,943.4
2018-06-30T06:52:04.668Z,943.4
2018-06-30T06:54:07.034Z,943.4
2018-06-30T06:56:09.401Z,943.5
2018-06-30T06:58:11.773Z,943.5
2018-06-30T07:00:14.172Z,943.4
2018-06-30T07:02:16.591Z,943.4
2018-06-30T07:04:18.954Z,943.4
2018-06-30T07:06:21.327Z,943.4
2018-06-30T07:08:23.690Z,943.4
2018-06-30T07:10:26.061Z,943.4
2018-06-30T07:12:28.425Z,943.4
2018-06-30T07:14:30.797Z,943.5
2018-06-30T07:16:33.168Z,943.5
2018-06-30T07:18:35.534Z,943.5
2018-06-30T07:20:37.897Z,943.5
2018-06-30T07:22:40.269Z,943.5
2018-06-30T07:24:42.972Z,943.5
2018-06-30T07:26:46.264Z,943.5
2018-06-30T07:28:48.631Z,943.8
2018-06-30T07:30:51.002Z,943.6
2018-06-30T07:32:53.453Z,943.6
2018-06-30T07:34:55.816Z,943.7
2018-06-30T07:36:59.328Z,943.8
2018-06-30T07:39:01.693Z,943.7
2018-06-30T07:41:04.062Z,943.7
2018-06-30T07:43:06.433Z,943.8
2018-06-30T07:45:08.821Z,943.8
2018-06-30T07:47:11.188Z,943.8
2018-06-30T07:49:17.516Z,943.8
2018-06-30T07:51:20.105Z,943.7
2018-06-30T07:53:22.544Z,943.8
2018-06-30T07:55:24.876Z,943.8
2018-06-30T07:57:27.245Z,943.7
2018-06-30T07:59:29.671Z,943.8
2018-06-30T08:01:32.011Z,943.7
2018-06-30T08:03:34.382Z,943.8
2018-06-30T08:05:36.744Z,943.6
2018-06-30T08:07:39.122Z,943.7
2018-06-30T08:09:41.553Z,943.7
2018-06-30T08:11:44.174Z,943.7
2018-06-30T08:13:46.681Z,943.7
2018-06-30T08:15:49.035Z,943.7
2018-06-30T08:17:54.222Z,943.8
2018-06-30T08:19:56.550Z,943.6
2018-06-30T08:21:58.918Z,943.7
2018-06-30T08:24:01.312Z,943.7
2018-06-30T08:26:03.684Z,943.7
2018-06-30T08:28:06.081Z,943.9
2018-06-30T08:30:08.850Z,943.9
2018-06-30T08:32:11.334Z,943.6
2018-06-30T08:34:13.953Z,943.8
2018-06-30T08:36:16.371Z,943.6
2018-06-30T08:38:18.794Z,943.8
2018-06-30T08:40:21.168Z,944.2
2018-06-30T08:42:23.532Z,943.6
2018-06-30T08:44:25.967Z,943.9
2018-06-30T08:46:28.393Z,943.9
2018-06-30T08:48:30.771Z,943.8
2018-06-30T08:50:33.137Z,944
2018-06-30T08:52:35.524Z,943.9
2018-06-30T08:54:37.936Z,943.9
2018-06-30T08:56:40.305Z,943.9
2018-06-30T08:58:42.724Z,943.9
2018-06-30T09:00:45.277Z,944
2018-06-30T09:02:47.719Z,944
2018-06-30T09:04:50.349Z,944
2018-06-30T09:06:52.730Z,944
2018-06-30T09:08:55.108Z,944.1
2018-06-30T09:10:57.482Z,944.1
2018-06-30T09:12:59.850Z,944.1
2018-06-30T09:15:02.349Z,944.2
2018-06-30T09:17:04.691Z,944.2
2018-06-30T09:19:07.089Z,944.1
2018-06-30T09:21:09.451Z,944.1
2018-06-30T09:23:11.844Z,944.2
2018-06-30T09:25:14.212Z,944.3
2018-06-30T09:27:16.589Z,944.2
2018-06-30T09:29:18.958Z,944.3
2018-06-30T09:31:21.335Z,944.3
2018-06-30T09:33:23.701Z,944.3
2018-06-30T09:35:26.072Z,944.2
2018-06-30T09:37:28.440Z,943.9
2018-06-30T09:39:30.808Z,944.3
2018-06-30T09:41:36.040Z,944.2
2018-06-30T09:43:38.353Z,944.2
2018-06-30T09:45:40.721Z,944.3
2018-06-30T09:47:43.090Z,944.2
2018-06-30T09:49:45.459Z,944.3
2018-06-30T09:51:47.852Z,944.3
2018-06-30T09:53:50.234Z,944.4
2018-06-30T09:55:52.602Z,944.3
2018-06-30T09:57:54.973Z,944.3
2018-06-30T09:59:57.538Z,944.3
2018-06-30T10:01:59.906Z,944.3
2018-06-30T10:04:02.270Z,944.3
2018-06-30T10:06:04.638Z,944.3
2018-06-30T10:08:07.062Z,944.3
2018-06-30T10:10:09.430Z,944.3
2018-06-30T10:12:11.793Z,944.3
2018-06-30T10:14:14.167Z,944.3
2018-06-30T10:16:16.534Z,944.4
2018-06-30T10:18:18.903Z,944.4
2018-06-30T10:20:21.270Z,944.3
2018-06-30T10:22:23.637Z,944.3
2018-06-30T10:24:26.004Z,944.3
2018-06-30T10:26:28.377Z,944.4
2018-06-30T10:28:30.747Z,944.3
2018-06-30T10:30:34.055Z,944.3
2018-06-30T10:32:36.421Z,944.3
2018-06-30T10:34:38.790Z,944.5
2018-06-30T10:36:41.162Z,944.5
2018-06-30T10:38:43.533Z,944.4
2018-06-30T10:40:45.900Z,944.3
2018-06-30T10:42:48.270Z,944.3
2018-06-30T10:44:50.675Z,944.3
2018-06-30T10:46:53.044Z,944.3
2018-06-30T10:48:55.406Z,944.5
2018-06-30T10:50:57.775Z,944.6
2018-06-30T10:53:00.148Z,944.4
2018-06-30T10:55:02.520Z,944.5
2018-06-30T10:57:04.883Z,944.6
2018-06-30T10:59:07.277Z,944.5
2018-06-30T11:01:10.632Z,944.3
2018-06-30T11:03:12.946Z,944.3
2018-06-30T11:05:15.523Z,944.4
2018-06-30T11:07:18.028Z,944.4
2018-06-30T11:09:20.609Z,944.3
2018-06-30T11:11:22.982Z,944.3
2018-06-30T11:13:25.526Z,944.3
2018-06-30T11:15:27.900Z,944.3
2018-06-30T11:17:30.349Z,944.3
2018-06-30T11:19:32.748Z,944.3
2018-06-30T11:21:35.119Z,944.3
2018-06-30T11:23:37.486Z,944.2
2018-06-30T11:25:39.881Z,944.2
2018-06-30T11:27:42.241Z,944.3
2018-06-30T11:29:44.609Z,944.2
2018-06-30T11:31:46.979Z,944.2
2018-06-30T11:33:49.361Z,944.3
2018-06-30T11:35:51.756Z,944.2
2018-06-30T11:37:54.110Z,944.2
2018-06-30T11:39:56.486Z,944.1
2018-06-30T11:41:58.854Z,944.2
2018-06-30T11:44:01.286Z,944.2
2018-06-30T11:46:07.266Z,944.2
2018-06-30T11:48:16.801Z,944.1
2018-06-30T11:50:19.193Z,944.1
2018-06-30T11:52:21.570Z,944.1
2018-06-30T11:54:23.967Z,944.2
2018-06-30T11:56:26.339Z,944.1
2018-06-30T11:58:28.713Z,944.1
2018-06-30T12:00:31.084Z,944.1
2018-06-30T12:02:33.450Z,944.2
2018-06-30T12:04:36.051Z,944.2
2018-06-30T12:06:38.656Z,944.1
2018-06-30T12:08:40.962Z,944.1
2018-06-30T12:10:43.363Z,944.1
2018-06-30T12:12:45.735Z,944.2
2018-06-30T12:14:48.118Z,944.2
2018-06-30T12:16:50.480Z,944.3
2018-06-30T12:18:52.857Z,944.3
2018-06-30T12:20:55.220Z,944.3
2018-06-30T12:22:57.598Z,944.2
2018-06-30T12:24:59.972Z,944.3
2018-06-30T12:27:02.337Z,944.2
2018-06-30T12:29:07.604Z,944.2
2018-06-30T12:31:09.994Z,944.2
2018-06-30T12:33:12.404Z,944.1
2018-06-30T12:35:14.827Z,944.2
2018-06-30T12:37:17.416Z,944.3
2018-06-30T12:39:19.790Z,944.2
2018-06-30T12:41:22.154Z,944.1
2018-06-30T12:43:24.522Z,944.2
2018-06-30T12:45:26.892Z,944.1
2018-06-30T12:47:29.260Z,944.2
2018-06-30T12:49:31.630Z,944.1
2018-06-30T12:51:34.004Z,944.1
2018-06-30T12:53:36.387Z,944.1
2018-06-30T12:55:38.754Z,944.1
2018-06-30T12:57:41.118Z,944.1
2018-06-30T12:59:43.487Z,944.1
2018-06-30T13:01:45.870Z,944.2
2018-06-30T13:03:48.352Z,944.1
2018-06-30T13:05:50.763Z,944.2
2018-06-30T13:07:53.127Z,944.2
2018-06-30T13:09:55.497Z,944.2
2018-06-30T13:11:57.866Z,944.2
2018-06-30T13:14:01.224Z,944.1
2018-06-30T13:16:03.543Z,944.1
2018-06-30T13:18:05.909Z,944.2
2018-06-30T13:20:08.280Z,944.2
2018-06-30T13:22:10.644Z,944.2
2018-06-30T13:24:13.017Z,944.2
2018-06-30T13:26:15.385Z,944.2
2018-06-30T13:28:17.757Z,944.2
2018-06-30T13:30:20.124Z,944.2
2018-06-30T13:32:22.497Z,944.3
2018-06-30T13:34:24.906Z,944.2
2018-06-30T13:36:27.376Z,944.2
2018-06-30T13:38:29.750Z,944.2
2018-06-30T13:40:32.121Z,944.3
2018-06-30T13:42:34.487Z,944.3
2018-06-30T13:44:36.851Z,944.3
2018-06-30T13:46:39.243Z,944.4
2018-06-30T13:48:41.613Z,944.3
2018-06-30T13:50:44.000Z,944.3
2018-06-30T13:52:46.679Z,944.4
2018-06-30T13:54:49.009Z,944.4
2018-06-30T13:56:51.374Z,944.3
2018-06-30T13:58:53.750Z,944.3
2018-06-30T14:00:56.260Z,944.2
2018-06-30T14:02:58.747Z,944.3
2018-06-30T14:05:01.122Z,944.3
2018-06-30T14:07:03.611Z,944.3
2018-06-30T14:09:08.752Z,944.3
2018-06-30T14:11:11.128Z,944.4
2018-06-30T14:13:13.503Z,944.3
2018-06-30T14:15:15.871Z,944.5
2018-06-30T14:17:18.236Z,944.5
2018-06-30T14:19:20.605Z,944.5
2018-06-30T14:21:22.976Z,944.5
2018-06-30T14:23:25.407Z,944.4
2018-06-30T14:25:27.738Z,944.5
2018-06-30T14:27:30.142Z,944.5
2018-06-30T14:29:32.505Z,944.6
2018-06-30T14:31:34.876Z,944.7
2018-06-30T14:33:37.243Z,944.6
2018-06-30T14:35:39.615Z,944.5
2018-06-30T14:37:42.093Z,944.7
2018-06-30T14:39:44.503Z,944.7
2018-06-30T14:41:46.872Z,944.8
2018-06-30T14:43:49.285Z,944.9
2018-06-30T14:45:51.860Z,944.9
2018-06-30T14:47:54.223Z,944.8
2018-06-30T14:49:56.638Z,945
2018-06-30T14:52:00.036Z,945
2018-06-30T14:54:03.327Z,945
2018-06-30T14:56:06.702Z,944.9
2018-06-30T14:58:09.081Z,945.1
2018-06-30T15:00:11.449Z,945.1
2018-06-30T15:02:13.808Z,945.1
2018-06-30T15:04:16.182Z,945.2
2018-06-30T15:06:18.590Z,945.2
2018-06-30T15:08:20.956Z,945.3
2018-06-30T15:10:23.324Z,945.4
2018-06-30T15:12:25.738Z,945.3
2018-06-30T15:14:28.108Z,945.5
2018-06-30T15:16:30.476Z,945.6
2018-06-30T15:18:32.840Z,945.5
2018-06-30T15:20:35.207Z,945.6
2018-06-30T15:22:37.581Z,945.7
2018-06-30T15:24:40.251Z,945.6
2018-06-30T15:26:42.633Z,945.6
2018-06-30T15:28:45.002Z,945.7
2018-06-30T15:30:47.364Z,945.7
2018-06-30T15:32:49.739Z,945.7
2018-06-30T15:34:52.156Z,945.7
2018-06-30T15:36:54.519Z,945.8
2018-06-30T15:38:56.886Z,945.7
2018-06-30T15:40:59.258Z,945.8
2018-06-30T15:43:01.628Z,945.7
2018-06-30T15:45:03.997Z,945.7
2018-06-30T15:47:06.366Z,945.8
2018-06-30T15:49:08.741Z,945.8
2018-06-30T15:51:11.112Z,945.8
2018-06-30T15:53:13.478Z,945.8
2018-06-30T15:55:15.878Z,945.7
2018-06-30T15:57:18.240Z,945.8
2018-06-30T15:59:20.798Z,945.9
2018-06-30T16:01:23.187Z,945.8
2018-06-30T16:03:25.561Z,945.9
2018-06-30T16:05:28.070Z,945.9
2018-06-30T16:07:30.541Z,945.9
2018-06-30T16:09:32.911Z,945.9
2018-06-30T16:11:35.310Z,945.9
2018-06-30T16:13:37.673Z,945.9
2018-06-30T16:15:40.042Z,946
2018-06-30T16:17:42.414Z,946
2018-06-30T16:19:44.775Z,946
2018-06-30T16:21:49.835Z,946
2018-06-30T16:23:52.200Z,946
2018-06-30T16:25:54.568Z,946
2018-06-30T16:27:56.932Z,946
2018-06-30T16:29:59.305Z,946.1
2018-06-30T16:32:01.673Z,946.2
2018-06-30T16:34:04.048Z,946.2
2018-06-30T16:36:06.597Z,946.2
2018-06-30T16:38:11.989Z,946.2
2018-06-30T16:40:14.361Z,946.3
2018-06-30T16:42:16.731Z,946.3
2018-06-30T16:44:19.122Z,946.2
2018-06-30T16:46:21.492Z,946.2
2018-06-30T16:48:23.867Z,946.3
2018-06-30T16:50:26.287Z,946.3
2018-06-30T16:52:28.652Z,946.3
2018-06-30T16:54:31.021Z,946.3
2018-06-30T16:56:33.393Z,946.4
2018-06-30T16:58:35.762Z,946.5
2018-06-30T17:00:38.405Z,946.4
2018-06-30T17:02:40.824Z,946.6
2018-06-30T17:04:43.202Z,946.5
2018-06-30T17:06:45.571Z,946.5
2018-06-30T17:08:47.964Z,946.6
2018-06-30T17:10:50.359Z,946.6
2018-06-30T17:12:52.741Z,946.6
2018-06-30T17:14:55.157Z,946.6
2018-06-30T17:16:57.498Z,946.5
2018-06-30T17:18:59.865Z,946.6
2018-06-30T17:21:02.227Z,946.6
2018-06-30T17:23:04.603Z,946.7
2018-06-30T17:25:06.977Z,946.7
2018-06-30T17:27:09.343Z,946.7
2018-06-30T17:29:11.707Z,946.8
2018-06-30T17:31:14.082Z,946.7
2018-06-30T17:33:16.439Z,946.8
2018-06-30T17:35:18.811Z,946.8
2018-06-30T17:37:21.183Z,946.9
2018-06-30T17:39:23.550Z,946.9
2018-06-30T17:41:25.921Z,946.9
2018-06-30T17:43:28.287Z,947
2018-06-30T17:45:30.651Z,947
2018-06-30T17:47:33.020Z,947
2018-06-30T17:49:35.391Z,947
2018-06-30T17:51:37.754Z,947
2018-06-30T17:53:40.123Z,947.1
2018-06-30T17:55:42.532Z,947.1
2018-06-30T17:57:44.903Z,947.1
2018-06-30T17:59:47.265Z,947.1
2018-06-30T18:01:49.633Z,947.3
2018-06-30T18:03:52.140Z,947.3
2018-06-30T18:05:54.715Z,947.2
2018-06-30T18:07:57.079Z,947.2
2018-06-30T18:09:59.571Z,947.2
2018-06-30T18:12:01.977Z,947.3
2018-06-30T18:14:04.479Z,947.3
2018-06-30T18:16:06.799Z,947.3
2018-06-30T18:18:11.848Z,947.4
2018-06-30T18:20:14.215Z,947.4
2018-06-30T18:22:16.587Z,947.4
2018-06-30T18:24:18.960Z,947.5
2018-06-30T18:26:21.344Z,947.5
2018-06-30T18:28:23.715Z,947.6
2018-06-30T18:30:26.079Z,947.6
2018-06-30T18:32:28.483Z,947.7
2018-06-30T18:34:30.846Z,947.7
2018-06-30T18:36:33.215Z,947.8
2018-06-30T18:38:35.597Z,947.8
2018-06-30T18:40:37.956Z,947.9
2018-06-30T18:42:40.324Z,948
2018-06-30T18:44:42.687Z,948
2018-06-30T18:46:45.492Z,948
2018-06-30T18:48:48.123Z,948.1
2018-06-30T18:50:50.486Z,948.2
2018-06-30T18:52:53.050Z,948.2
2018-06-30T18:54:55.751Z,948.2
2018-06-30T18:56:58.119Z,948.3
2018-06-30T18:59:00.503Z,948.3
2018-06-30T19:01:02.882Z,948.3
2018-06-30T19:03:05.323Z,948.3
2018-06-30T19:05:07.727Z,948.4
2018-06-30T19:07:11.088Z,948.5
2018-06-30T19:09:13.407Z,948.5
2018-06-30T19:11:15.814Z,948.5
2018-06-30T19:13:18.183Z,948.5
2018-06-30T19:15:20.551Z,948.5
2018-06-30T19:17:22.924Z,948.6
2018-06-30T19:19:25.293Z,948.6
2018-06-30T19:21:27.923Z,948.6
2018-06-30T19:23:30.368Z,948.5
2018-06-30T19:25:32.742Z,948.5
2018-06-30T19:27:35.104Z,948.5
2018-06-30T19:29:37.470Z,948.6
2018-06-30T19:31:39.881Z,948.6
2018-06-30T19:33:42.249Z,948.7
2018-06-30T19:35:44.621Z,948.6
2018-06-30T19:37:46.984Z,948.6
2018-06-30T19:39:49.350Z,948.7
2018-06-30T19:41:51.738Z,948.7
2018-06-30T19:43:54.243Z,948.8
2018-06-30T19:45:56.623Z,948.8
2018-06-30T19:47:59.004Z,948.8
2018-06-30T19:50:01.426Z,948.8
2018-06-30T19:52:03.808Z,948.9
2018-06-30T19:54:06.187Z,948.9
2018-06-30T19:56:08.594Z,948.9
2018-06-30T19:58:10.961Z,948.9
2018-06-30T20:00:13.356Z,949
2018-06-30T20:02:15.749Z,949
2018-06-30T20:04:18.199Z,948.9
2018-06-30T20:06:20.616Z,948.9
2018-06-30T20:08:23.378Z,948.9
2018-06-30T20:10:26.350Z,948.9
2018-06-30T20:12:28.778Z,949
2018-06-30T20:14:31.182Z,949
2018-06-30T20:16:33.545Z,948.9
2018-06-30T20:18:35.921Z,949
2018-06-30T20:20:38.307Z,948.9
2018-06-30T20:22:40.680Z,949
2018-06-30T20:24:43.060Z,949
2018-06-30T20:26:45.458Z,949
2018-06-30T20:28:47.833Z,949.1
2018-06-30T20:30:50.199Z,949
2018-06-30T20:32:52.577Z,949
2018-06-30T20:34:54.953Z,949
2018-06-30T20:36:57.320Z,949.1
2018-06-30T20:38:59.703Z,949.1
2018-06-30T20:41:02.075Z,949.2
2018-06-30T20:43:04.436Z,949.2
2018-06-30T20:45:08.018Z,949.1
2018-06-30T20:47:10.540Z,949.1
2018-06-30T20:49:12.975Z,949.2
2018-06-30T20:51:15.357Z,949.2
2018-06-30T20:53:17.720Z,949.3
2018-06-30T20:55:20.092Z,949.3
2018-06-30T20:57:22.459Z,949.4
2018-06-30T20:59:24.832Z,949.5
2018-06-30T21:01:27.424Z,949.5
2018-06-30T21:03:29.986Z,949.5
2018-06-30T21:05:32.369Z,949.5
2018-06-30T21:07:34.752Z,949.6
2018-06-30T21:09:37.116Z,949.6
2018-06-30T21:11:39.521Z,949.6
2018-06-30T21:13:42.897Z,949.7
2018-06-30T21:15:45.261Z,949.7
2018-06-30T21:17:47.628Z,949.6
2018-06-30T21:19:50.000Z,949.6
2018-06-30T21:21:52.629Z,949.6
2018-06-30T21:23:55.005Z,949.6
2018-06-30T21:25:57.370Z,949.7
2018-06-30T21:27:59.771Z,949.7
2018-06-30T21:30:02.142Z,949.7
2018-06-30T21:32:04.512Z,949.7
2018-06-30T21:34:06.924Z,949.7
2018-06-30T21:36:09.244Z,949.7
2018-06-30T21:38:11.611Z,949.7
2018-06-30T21:40:13.981Z,949.8
2018-06-30T21:42:16.350Z,949.8
2018-06-30T21:44:18.719Z,949.8
2018-06-30T21:46:21.084Z,949.8
2018-06-30T21:48:23.451Z,949.8
2018-06-30T21:50:25.821Z,949.8
2018-06-30T21:52:28.190Z,949.8
2018-06-30T21:54:30.554Z,949.8
2018-06-30T21:56:32.925Z,949.9
2018-06-30T21:58:35.293Z,949.8
2018-06-30T22:00:37.662Z,949.9
2018-06-30T22:02:40.030Z,949.9
2018-06-30T22:04:42.431Z,949.9
2018-06-30T22:06:44.774Z,949.9
2018-06-30T22:08:47.252Z,949.9
2018-06-30T22:10:49.951Z,949.9
2018-06-30T22:12:52.551Z,949.9
2018-06-30T22:14:54.914Z,949.9
2018-06-30T22:16:57.283Z,949.9
2018-06-30T22:18:59.649Z,949.9
2018-06-30T22:21:02.017Z,949.9
2018-06-30T22:23:04.433Z,949.9
2018-06-30T22:25:06.802Z,950
2018-06-30T22:27:09.169Z,950
2018-06-30T22:29:11.536Z,950
2018-06-30T22:31:13.904Z,950
2018-06-30T22:33:16.303Z,950
2018-06-30T22:35:18.891Z,950
2018-06-30T22:37:21.260Z,950
2018-06-30T22:39:23.655Z,950
2018-06-30T22:41:26.023Z,950
2018-06-30T22:43:29.326Z,950
2018-06-30T22:45:31.689Z,950
2018-06-30T22:47:34.057Z,950
2018-06-30T22:49:36.428Z,950
2018-06-30T22:51:38.792Z,950
2018-06-30T22:53:41.165Z,950
2018-06-30T22:55:43.528Z,950
2018-06-30T22:57:45.895Z,950
2018-06-30T22:59:48.262Z,950.1
2018-06-30T23:01:50.630Z,950
2018-06-30T23:03:52.997Z,950
2018-06-30T23:05:55.395Z,950
2018-06-30T23:07:57.763Z,950
2018-06-30T23:10:00.136Z,950
2018-06-30T23:12:02.498Z,950
2018-06-30T23:14:04.867Z,949.9
2018-06-30T23:16:07.237Z,950
2018-06-30T23:18:09.603Z,950
2018-06-30T23:20:11.971Z,950
2018-06-30T23:22:14.366Z,949.9
2018-06-30T23:24:16.812Z,950.1
2018-06-30T23:26:19.151Z,950
2018-06-30T23:28:21.521Z,950.1
2018-06-30T23:30:23.886Z,950.1
2018-06-30T23:32:26.251Z,950.2
2018-06-30T23:34:28.620Z,950.2
2018-06-30T23:36:30.987Z,950.2
2018-06-30T23:38:33.355Z,950.2
2018-06-30T23:40:35.722Z,950.2
2018-06-30T23:42:38.117Z,950.1
2018-06-30T23:44:40.941Z,950.1
2018-06-30T23:46:43.547Z,950.2
2018-06-30T23:48:45.914Z,950.2
2018-06-30T23:50:48.285Z,950.3
2018-06-30T23:52:50.651Z,950.3
2018-06-30T23:54:53.100Z,950.2
2018-06-30T23:56:55.468Z,950.2
2018-06-30T23:58:57.835Z,950.3
